sensor_id;sensor_type;location;lat;lon;timestamp;pressure;altitude;pressure_sealevel;temperature;humidity
967;BME280;56108;48.730;9.304;2023-04-01T00:01:36;96233.84;;;7.07;100.00
967;BME280;56108;48.730;9.304;2023-04-01T00:03:45;96227.72;;;7.18;100.00
967;BME280;56108;48.730;9.304;2023-04-01T00:05:53;96223.16;;;7.09;100.00
967;BME280;56108;48.730;9.304;2023-04-01T00:08:04;96227.72;;;7.06;100.00
967;BME280;56108;48.730;9.304;2023-04-01T00:10:15;96217.75;;;7.10;100.00
967;BME280;56108;48.730;9.304;2023-04-01T00:12:23;96211.38;;;7.13;100.00
967;BME280;56108;48.730;9.304;2023-04-01T00:14:31;96228.69;;;7.17;100.00
967;BME280;56108;48.730;9.304;2023-04-01T00:16:41;96223.88;;;7.22;100.00
967;BME280;56108;48.730;9.304;2023-04-01T00:18:50;96222.91;;;7.34;100.00
967;BME280;56108;48.730;9.304;2023-04-01T00:20:58;96226.53;;;7.33;100.00
967;BME280;56108;48.730;9.304;2023-04-01T00:23:09;96223.53;;;7.38;100.00
967;BME280;56108;48.730;9.304;2023-04-01T00:25:17;96234.13;;;7.26;100.00
967;BME280;56108;48.730;9.304;2023-04-01T00:27:25;96224.38;;;7.27;100.00
967;BME280;56108;48.730;9.304;2023-04-01T00:29:34;96221.00;;;7.25;100.00
967;BME280;56108;48.730;9.304;2023-04-01T00:31:42;96224.25;;;7.28;100.00
967;BME280;56108;48.730;9.304;2023-04-01T00:33:51;96222.56;;;7.39;100.00
967;BME280;56108;48.730;9.304;2023-04-01T00:36:06;96226.41;;;7.35;100.00
967;BME280;56108;48.730;9.304;2023-04-01T00:38:17;96227.38;;;7.33;100.00
967;BME280;56108;48.730;9.304;2023-04-01T00:40:27;96231.81;;;7.22;100.00
967;BME280;56108;48.730;9.304;2023-04-01T00:42:36;96227.03;;;7.27;100.00
967;BME280;56108;48.730;9.304;2023-04-01T00:44:46;96223.28;;;7.29;100.00
967;BME280;56108;48.730;9.304;2023-04-01T00:46:56;96226.28;;;7.14;100.00
967;BME280;56108;48.730;9.304;2023-04-01T00:49:04;96228.09;;;7.13;100.00
967;BME280;56108;48.730;9.304;2023-04-01T00:51:15;96232.41;;;7.14;100.00
967;BME280;56108;48.730;9.304;2023-04-01T00:53:28;96235.31;;;7.33;100.00
967;BME280;56108;48.730;9.304;2023-04-01T00:55:41;96237.13;;;7.33;100.00
967;BME280;56108;48.730;9.304;2023-04-01T00:57:53;96246.38;;;7.50;100.00
967;BME280;56108;48.730;9.304;2023-04-01T01:00:05;96243.72;;;7.50;100.00
967;BME280;56108;48.730;9.304;2023-04-01T01:02:14;96245.31;;;7.52;100.00
967;BME280;56108;48.730;9.304;2023-04-01T01:04:25;96243.03;;;7.48;100.00
967;BME280;56108;48.730;9.304;2023-04-01T01:06:41;96238.31;;;7.51;100.00
967;BME280;56108;48.730;9.304;2023-04-01T01:09:06;96241.44;;;7.56;100.00
967;BME280;56108;48.730;9.304;2023-04-01T01:11:23;96246.38;;;7.50;100.00
967;BME280;56108;48.730;9.304;2023-04-01T01:13:58;96232.41;;;7.70;100.00
967;BME280;56108;48.730;9.304;2023-04-01T01:16:15;96232.16;;;7.62;100.00
967;BME280;56108;48.730;9.304;2023-04-01T01:18:34;96227.50;;;7.43;100.00
967;BME280;56108;48.730;9.304;2023-04-01T01:23:42;96219.91;;;7.50;100.00
967;BME280;56108;48.730;9.304;2023-04-01T01:26:09;96234.22;;;7.58;100.00
967;BME280;56108;48.730;9.304;2023-04-01T01:28:32;96228.81;;;7.49;100.00
967;BME280;56108;48.730;9.304;2023-04-01T01:30:49;96234.34;;;7.46;100.00
967;BME280;56108;48.730;9.304;2023-04-01T01:33:22;96241.69;;;7.42;100.00
967;BME280;56108;48.730;9.304;2023-04-01T01:35:37;96233.63;;;7.44;100.00
967;BME280;56108;48.730;9.304;2023-04-01T01:37:55;96239.53;;;7.58;100.00
967;BME280;56108;48.730;9.304;2023-04-01T01:40:08;96234.94;;;7.49;100.00
967;BME280;56108;48.730;9.304;2023-04-01T01:42:18;96223.53;;;7.38;100.00
967;BME280;56108;48.730;9.304;2023-04-01T01:44:28;96227.38;;;7.45;100.00
967;BME280;56108;48.730;9.304;2023-04-01T01:46:38;96230.50;;;7.27;100.00
967;BME280;56108;48.730;9.304;2023-04-01T01:48:47;96226.63;;;7.20;100.00
967;BME280;56108;48.730;9.304;2023-04-01T01:50:59;96231.56;;;7.25;100.00
967;BME280;56108;48.730;9.304;2023-04-01T01:53:09;96226.66;;;7.31;100.00
967;BME280;56108;48.730;9.304;2023-04-01T01:55:28;96221.47;;;7.41;100.00
967;BME280;56108;48.730;9.304;2023-04-01T01:57:37;96231.22;;;7.41;100.00
967;BME280;56108;48.730;9.304;2023-04-01T01:59:55;96226.41;;;7.35;100.00
967;BME280;56108;48.730;9.304;2023-04-01T02:02:06;96224.84;;;7.32;100.00
967;BME280;56108;48.730;9.304;2023-04-01T02:04:17;96225.22;;;7.27;100.00
967;BME280;56108;48.730;9.304;2023-04-01T02:06:32;96214.72;;;7.15;100.00
967;BME280;56108;48.730;9.304;2023-04-01T02:08:45;96215.81;;;7.12;100.00
967;BME280;56108;48.730;9.304;2023-04-01T02:10:58;96229.75;;;7.25;100.00
967;BME280;56108;48.730;9.304;2023-04-01T02:13:17;96232.31;;;7.16;100.00
967;BME280;56108;48.730;9.304;2023-04-01T02:15:29;96221.81;;;7.14;100.00
967;BME280;56108;48.730;9.304;2023-04-01T02:17:45;96227.84;;;7.16;100.00
967;BME280;56108;48.730;9.304;2023-04-01T02:19:56;96229.28;;;7.20;100.00
967;BME280;56108;48.730;9.304;2023-04-01T02:22:12;96231.09;;;7.20;100.00
967;BME280;56108;48.730;9.304;2023-04-01T02:24:23;96242.50;;;7.20;100.00
967;BME280;56108;48.730;9.304;2023-04-01T02:26:34;96238.66;;;7.13;100.00
967;BME280;56108;48.730;9.304;2023-04-01T02:28:43;96236.72;;;7.04;100.00
967;BME280;56108;48.730;9.304;2023-04-01T02:30:55;96243.22;;;7.00;100.00
967;BME280;56108;48.730;9.304;2023-04-01T02:33:07;96238.38;;;6.83;100.00
967;BME280;56108;48.730;9.304;2023-04-01T02:35:17;96241.75;;;6.85;100.00
967;BME280;56108;48.730;9.304;2023-04-01T02:37:28;96247.44;;;7.02;100.00
967;BME280;56108;48.730;9.304;2023-04-01T02:39:39;96248.28;;;7.03;100.00
967;BME280;56108;48.730;9.304;2023-04-01T02:41:47;96245.13;;;6.98;100.00
967;BME280;56108;48.730;9.304;2023-04-01T02:43:56;96246.09;;;6.97;100.00
967;BME280;56108;48.730;9.304;2023-04-01T02:46:04;96243.47;;;6.97;100.00
967;BME280;56108;48.730;9.304;2023-04-01T02:48:13;96242.97;;;7.03;100.00
967;BME280;56108;48.730;9.304;2023-04-01T02:50:21;96242.47;;;6.87;100.00
967;BME280;56108;48.730;9.304;2023-04-01T02:52:32;96244.97;;;6.77;100.00
967;BME280;56108;48.730;9.304;2023-04-01T02:54:41;96242.34;;;6.88;100.00
967;BME280;56108;48.730;9.304;2023-04-01T02:56:49;96246.69;;;6.89;100.00
967;BME280;56108;48.730;9.304;2023-04-01T02:58:57;96245.59;;;6.80;100.00
967;BME280;56108;48.730;9.304;2023-04-01T03:01:05;96246.91;;;6.86;100.00
967;BME280;56108;48.730;9.304;2023-04-01T03:03:13;96253.28;;;6.84;100.00
967;BME280;56108;48.730;9.304;2023-04-01T03:05:21;96241.50;;;6.76;100.00
967;BME280;56108;48.730;9.304;2023-04-01T03:07:32;96244.94;;;6.66;100.00
967;BME280;56108;48.730;9.304;2023-04-01T03:09:40;96243.38;;;6.63;100.00
967;BME280;56108;48.730;9.304;2023-04-01T03:11:48;96240.59;;;6.53;100.00
967;BME280;56108;48.730;9.304;2023-04-01T03:13:56;96244.09;;;6.65;100.00
967;BME280;56108;48.730;9.304;2023-04-01T03:16:05;96239.88;;;6.63;100.00
967;BME280;56108;48.730;9.304;2023-04-01T03:18:14;96247.09;;;6.61;100.00
967;BME280;56108;48.730;9.304;2023-04-01T03:20:22;96244.88;;;6.43;100.00
967;BME280;56108;48.730;9.304;2023-04-01T03:22:32;96245.59;;;6.45;100.00
967;BME280;56108;48.730;9.304;2023-04-01T03:24:41;96243.78;;;6.46;100.00
967;BME280;56108;48.730;9.304;2023-04-01T03:26:49;96257.41;;;6.52;100.00
967;BME280;56108;48.730;9.304;2023-04-01T03:28:57;96248.78;;;6.62;100.00
967;BME280;56108;48.730;9.304;2023-04-01T03:31:05;96245.97;;;6.52;100.00
967;BME280;56108;48.730;9.304;2023-04-01T03:33:20;96249.53;;;6.40;100.00
967;BME280;56108;48.730;9.304;2023-04-01T03:35:28;96249.75;;;6.37;100.00
967;BME280;56108;48.730;9.304;2023-04-01T03:37:39;96251.22;;;6.41;100.00
967;BME280;56108;48.730;9.304;2023-04-01T03:39:47;96251.84;;;6.44;100.00
967;BME280;56108;48.730;9.304;2023-04-01T03:41:55;96258.34;;;6.51;100.00
967;BME280;56108;48.730;9.304;2023-04-01T03:44:03;96250.56;;;6.61;100.00
967;BME280;56108;48.730;9.304;2023-04-01T03:46:16;96254.06;;;6.62;100.00
967;BME280;56108;48.730;9.304;2023-04-01T03:48:25;96258.66;;;6.71;100.00
967;BME280;56108;48.730;9.304;2023-04-01T03:50:34;96255.06;;;6.72;100.00
967;BME280;56108;48.730;9.304;2023-04-01T03:52:45;96259.75;;;6.68;100.00
967;BME280;56108;48.730;9.304;2023-04-01T03:54:53;96250.00;;;6.69;100.00
967;BME280;56108;48.730;9.304;2023-04-01T03:57:01;96258.53;;;6.72;100.00
967;BME280;56108;48.730;9.304;2023-04-01T03:59:10;96250.13;;;6.78;100.00
967;BME280;56108;48.730;9.304;2023-04-01T04:01:21;96253.38;;;6.71;100.00
967;BME280;56108;48.730;9.304;2023-04-01T04:03:32;96247.75;;;6.75;100.00
967;BME280;56108;48.730;9.304;2023-04-01T04:05:46;96245.16;;;6.63;100.00
967;BME280;56108;48.730;9.304;2023-04-01T04:07:58;96244.31;;;6.62;100.00
967;BME280;56108;48.730;9.304;2023-04-01T04:10:07;96245.84;;;6.42;100.00
967;BME280;56108;48.730;9.304;2023-04-01T04:12:16;96237.91;;;6.42;100.00
967;BME280;56108;48.730;9.304;2023-04-01T04:14:24;96228.63;;;6.37;100.00
967;BME280;56108;48.730;9.304;2023-04-01T04:16:34;96234.81;;;6.24;100.00
967;BME280;56108;48.730;9.304;2023-04-01T04:18:43;96229.28;;;6.16;100.00
967;BME280;56108;48.730;9.304;2023-04-01T04:20:51;96226.38;;;6.19;100.00
967;BME280;56108;48.730;9.304;2023-04-01T04:23:02;96234.91;;;6.12;100.00
967;BME280;56108;48.730;9.304;2023-04-01T04:25:12;96237.38;;;6.02;100.00
967;BME280;56108;48.730;9.304;2023-04-01T04:27:20;96236.00;;;5.96;100.00
967;BME280;56108;48.730;9.304;2023-04-01T04:29:36;96224.06;;;5.91;100.00
967;BME280;56108;48.730;9.304;2023-04-01T04:31:44;96225.88;;;5.90;100.00
967;BME280;56108;48.730;9.304;2023-04-01T04:33:53;96221.00;;;5.97;100.00
967;BME280;56108;48.730;9.304;2023-04-01T04:36:02;96234.22;;;5.97;100.00
967;BME280;56108;48.730;9.304;2023-04-01T04:38:13;96230.09;;;5.93;100.00
967;BME280;56108;48.730;9.304;2023-04-01T04:40:21;96220.03;;;5.98;100.00
967;BME280;56108;48.730;9.304;2023-04-01T04:42:29;96223.53;;;5.98;100.00
967;BME280;56108;48.730;9.304;2023-04-01T04:44:43;96225.72;;;6.05;100.00
967;BME280;56108;48.730;9.304;2023-04-01T04:46:51;96224.16;;;6.02;100.00
967;BME280;56108;48.730;9.304;2023-04-01T04:49:02;96222.59;;;5.87;100.00
967;BME280;56108;48.730;9.304;2023-04-01T04:51:13;96225.13;;;5.88;100.00
967;BME280;56108;48.730;9.304;2023-04-01T04:53:24;96215.84;;;5.83;100.00
967;BME280;56108;48.730;9.304;2023-04-01T04:55:32;96221.00;;;5.97;100.00
967;BME280;56108;48.730;9.304;2023-04-01T04:57:55;96220.72;;;6.13;100.00
967;BME280;56108;48.730;9.304;2023-04-01T05:00:04;96220.38;;;6.17;100.00
967;BME280;56108;48.730;9.304;2023-04-01T05:02:39;96218.75;;;6.27;100.00
967;BME280;56108;48.730;9.304;2023-04-01T05:04:47;96220.91;;;6.22;100.00
967;BME280;56108;48.730;9.304;2023-04-01T05:06:55;96218.25;;;6.22;100.00
967;BME280;56108;48.730;9.304;2023-04-01T05:09:06;96226.44;;;6.31;100.00
967;BME280;56108;48.730;9.304;2023-04-01T05:11:16;96213.94;;;6.21;100.00
967;BME280;56108;48.730;9.304;2023-04-01T05:13:26;96211.84;;;6.38;100.00
967;BME280;56108;48.730;9.304;2023-04-01T05:15:35;96222.50;;;6.36;100.00
967;BME280;56108;48.730;9.304;2023-04-01T05:17:43;96207.78;;;6.56;100.00
967;BME280;56108;48.730;9.304;2023-04-01T05:19:52;96209.53;;;6.68;100.00
967;BME280;56108;48.730;9.304;2023-04-01T05:22:00;96209.75;;;6.65;100.00
967;BME280;56108;48.730;9.304;2023-04-01T05:24:11;96199.44;;;6.73;100.00
967;BME280;56108;48.730;9.304;2023-04-01T05:26:20;96208.81;;;6.89;100.00
967;BME280;56108;48.730;9.304;2023-04-01T05:28:28;96197.16;;;6.80;100.00
967;BME280;56108;48.730;9.304;2023-04-01T05:30:36;96209.19;;;6.84;100.00
967;BME280;56108;48.730;9.304;2023-04-01T05:33:04;96204.84;;;6.83;100.00
967;BME280;56108;48.730;9.304;2023-04-01T05:35:13;96202.19;;;6.83;100.00
967;BME280;56108;48.730;9.304;2023-04-01T05:37:21;96204.75;;;6.96;100.00
967;BME280;56108;48.730;9.304;2023-04-01T05:39:35;96209.34;;;7.05;100.00
967;BME280;56108;48.730;9.304;2023-04-01T05:41:45;96213.41;;;7.09;100.00
967;BME280;56108;48.730;9.304;2023-04-01T05:43:53;96222.22;;;7.21;100.00
967;BME280;56108;48.730;9.304;2023-04-01T05:46:21;96215.94;;;7.11;100.00
967;BME280;56108;48.730;9.304;2023-04-01T05:48:37;96213.41;;;7.20;100.00
967;BME280;56108;48.730;9.304;2023-04-01T05:50:45;96211.50;;;7.33;100.00
967;BME280;56108;48.730;9.304;2023-04-01T05:52:54;96212.69;;;7.41;100.00
967;BME280;56108;48.730;9.304;2023-04-01T05:55:06;96214.63;;;7.50;100.00
967;BME280;56108;48.730;9.304;2023-04-01T05:57:14;96219.41;;;7.56;100.00
967;BME280;56108;48.730;9.304;2023-04-01T05:59:22;96216.41;;;7.61;100.00
967;BME280;56108;48.730;9.304;2023-04-01T06:01:30;96221.22;;;7.67;100.00
967;BME280;56108;48.730;9.304;2023-04-01T06:03:38;96224.69;;;7.78;100.00
967;BME280;56108;48.730;9.304;2023-04-01T06:05:47;96223.94;;;7.88;100.00
967;BME280;56108;48.730;9.304;2023-04-01T06:07:59;96219.78;;;8.17;100.00
967;BME280;56108;48.730;9.304;2023-04-01T06:10:14;96219.78;;;8.17;100.00
967;BME280;56108;48.730;9.304;2023-04-01T06:12:31;96222.84;;;8.33;100.00
967;BME280;56108;48.730;9.304;2023-04-01T06:14:49;96217.59;;;8.54;100.00
967;BME280;56108;48.730;9.304;2023-04-01T06:17:13;96209.47;;;8.67;99.99
967;BME280;56108;48.730;9.304;2023-04-01T06:19:32;96206.63;;;8.80;98.39
967;BME280;56108;48.730;9.304;2023-04-01T06:24:43;96215.09;;;8.95;98.49
967;BME280;56108;48.730;9.304;2023-04-01T06:27:05;96212.47;;;9.25;95.22
967;BME280;56108;48.730;9.304;2023-04-01T06:32:13;96213.50;;;10.24;89.26
967;BME280;56108;48.730;9.304;2023-04-01T06:34:34;96208.63;;;10.29;87.09
967;BME280;56108;48.730;9.304;2023-04-01T06:37:03;96208.28;;;10.23;88.64
967;BME280;56108;48.730;9.304;2023-04-01T06:39:42;96208.28;;;10.03;89.68
967;BME280;56108;48.730;9.304;2023-04-01T06:42:15;96212.34;;;9.57;90.88
967;BME280;56108;48.730;9.304;2023-04-01T06:44:33;96206.69;;;9.41;92.29
967;BME280;56108;48.730;9.304;2023-04-01T06:47:14;96218.34;;;9.29;93.54
967;BME280;56108;48.730;9.304;2023-04-01T06:49:53;96215.00;;;9.27;93.93
967;BME280;56108;48.730;9.304;2023-04-01T06:52:26;96221.56;;;9.02;96.33
967;BME280;56108;48.730;9.304;2023-04-01T06:55:02;96216.25;;;9.02;97.92
967;BME280;56108;48.730;9.304;2023-04-01T06:58:13;96212.59;;;8.93;97.00
967;BME280;56108;48.730;9.304;2023-04-01T07:00:30;96214.44;;;8.81;99.45
967;BME280;56108;48.730;9.304;2023-04-01T07:02:46;96216.16;;;8.82;99.24
967;BME280;56108;48.730;9.304;2023-04-01T07:05:00;96213.09;;;8.87;99.30
967;BME280;56108;48.730;9.304;2023-04-01T07:07:15;96213.16;;;8.97;99.43
967;BME280;56108;48.730;9.304;2023-04-01T07:09:37;96211.53;;;9.05;98.42
967;BME280;56108;48.730;9.304;2023-04-01T07:12:11;96213.22;;;9.06;98.00
967;BME280;56108;48.730;9.304;2023-04-01T07:14:48;96216.38;;;9.21;97.58
967;BME280;56108;48.730;9.304;2023-04-01T07:16:59;96207.72;;;9.19;96.69
967;BME280;56108;48.730;9.304;2023-04-01T07:19:14;96212.53;;;9.35;99.07
967;BME280;56108;48.730;9.304;2023-04-01T07:21:37;96208.59;;;9.39;96.41
967;BME280;56108;48.730;9.304;2023-04-01T07:24:00;96219.91;;;9.31;94.66
967;BME280;56108;48.730;9.304;2023-04-01T07:26:21;96217.19;;;9.22;96.69
967;BME280;56108;48.730;9.304;2023-04-01T07:28:39;96221.00;;;9.29;97.51
967;BME280;56108;48.730;9.304;2023-04-01T07:31:17;96219.56;;;9.46;95.58
967;BME280;56108;48.730;9.304;2023-04-01T07:33:33;96215.63;;;9.40;96.58
967;BME280;56108;48.730;9.304;2023-04-01T07:35:47;96214.69;;;9.20;96.18
967;BME280;56108;48.730;9.304;2023-04-01T07:38:13;96210.22;;;9.21;97.38
967;BME280;56108;48.730;9.304;2023-04-01T07:40:30;96212.59;;;9.24;96.26
967;BME280;56108;48.730;9.304;2023-04-01T07:42:50;96217.25;;;9.31;96.28
967;BME280;56108;48.730;9.304;2023-04-01T07:45:09;96220.06;;;9.30;95.01
967;BME280;56108;48.730;9.304;2023-04-01T07:47:34;96223.44;;;9.41;96.91
967;BME280;56108;48.730;9.304;2023-04-01T07:49:50;96229.41;;;9.34;95.94
967;BME280;56108;48.730;9.304;2023-04-01T07:52:06;96230.09;;;9.26;96.84
967;BME280;56108;48.730;9.304;2023-04-01T07:54:28;96228.81;;;9.21;97.08
967;BME280;56108;48.730;9.304;2023-04-01T07:56:44;96217.00;;;9.34;96.73
967;BME280;56108;48.730;9.304;2023-04-01T07:59:03;96225.31;;;9.51;96.20
967;BME280;56108;48.730;9.304;2023-04-01T08:01:40;96225.03;;;9.23;95.95
967;BME280;56108;48.730;9.304;2023-04-01T08:04:10;96229.56;;;9.32;98.74
967;BME280;56108;48.730;9.304;2023-04-01T08:06:27;96233.59;;;9.57;97.13
967;BME280;56108;48.730;9.304;2023-04-01T08:08:46;96228.66;;;9.53;97.42
967;BME280;56108;48.730;9.304;2023-04-01T08:11:24;96223.41;;;9.62;96.29
967;BME280;56108;48.730;9.304;2023-04-01T08:14:01;96223.69;;;9.69;97.10
967;BME280;56108;48.730;9.304;2023-04-01T08:16:36;96234.63;;;9.85;94.53
967;BME280;56108;48.730;9.304;2023-04-01T08:19:01;96227.06;;;9.81;96.20
967;BME280;56108;48.730;9.304;2023-04-01T08:21:16;96225.09;;;9.73;95.25
967;BME280;56108;48.730;9.304;2023-04-01T08:23:30;96223.00;;;9.67;95.68
967;BME280;56108;48.730;9.304;2023-04-01T08:25:46;96222.28;;;9.65;95.21
967;BME280;56108;48.730;9.304;2023-04-01T08:28:00;96224.28;;;9.73;99.08
967;BME280;56108;48.730;9.304;2023-04-01T08:30:18;96233.91;;;9.74;98.03
967;BME280;56108;48.730;9.304;2023-04-01T08:32:31;96241.78;;;9.85;97.90
967;BME280;56108;48.730;9.304;2023-04-01T08:34:49;96234.16;;;9.71;98.27
967;BME280;56108;48.730;9.304;2023-04-01T08:37:14;96236.50;;;9.94;98.62
967;BME280;56108;48.730;9.304;2023-04-01T08:39:30;96229.25;;;10.16;98.11
967;BME280;56108;48.730;9.304;2023-04-01T08:42:00;96236.66;;;10.03;97.91
967;BME280;56108;48.730;9.304;2023-04-01T08:47:50;96239.56;;;9.90;99.38
967;BME280;56108;48.730;9.304;2023-04-01T08:50:23;96246.16;;;10.05;99.08
967;BME280;56108;48.730;9.304;2023-04-01T08:53:05;96233.00;;;9.94;100.00
967;BME280;56108;48.730;9.304;2023-04-01T08:57:46;96236.63;;;9.53;100.00
967;BME280;56108;48.730;9.304;2023-04-01T09:00:25;96230.03;;;9.17;100.00
967;BME280;56108;48.730;9.304;2023-04-01T09:03:13;96229.34;;;8.94;100.00
967;BME280;56108;48.730;9.304;2023-04-01T09:05:44;96232.91;;;9.04;100.00
967;BME280;56108;48.730;9.304;2023-04-01T09:08:02;96237.56;;;8.91;100.00
967;BME280;56108;48.730;9.304;2023-04-01T09:10:28;96224.56;;;8.87;100.00
967;BME280;56108;48.730;9.304;2023-04-01T09:13:12;96234.59;;;8.84;100.00
967;BME280;56108;48.730;9.304;2023-04-01T09:16:00;96227.84;;;8.80;100.00
967;BME280;56108;48.730;9.304;2023-04-01T09:18:43;96236.78;;;8.79;100.00
967;BME280;56108;48.730;9.304;2023-04-01T09:21:20;96233.28;;;8.99;100.00
967;BME280;56108;48.730;9.304;2023-04-01T09:23:46;96229.34;;;8.94;100.00
967;BME280;56108;48.730;9.304;2023-04-01T09:26:14;96241.69;;;9.04;100.00
967;BME280;56108;48.730;9.304;2023-04-01T09:28:28;96246.41;;;9.22;100.00
967;BME280;56108;48.730;9.304;2023-04-01T09:37:00;96240.66;;;9.47;100.00
967;BME280;56108;48.730;9.304;2023-04-01T09:39:30;96248.38;;;9.60;100.00
967;BME280;56108;48.730;9.304;2023-04-01T09:41:57;96250.22;;;9.59;100.00
967;BME280;56108;48.730;9.304;2023-04-01T09:44:24;96253.19;;;9.66;100.00
967;BME280;56108;48.730;9.304;2023-04-01T09:47:04;96264.16;;;9.82;100.00
967;BME280;56108;48.730;9.304;2023-04-01T09:49:43;96263.88;;;9.45;100.00
967;BME280;56108;48.730;9.304;2023-04-01T09:52:12;96264.16;;;9.52;100.00
967;BME280;56108;48.730;9.304;2023-04-01T09:54:36;96261.66;;;9.50;100.00
967;BME280;56108;48.730;9.304;2023-04-01T09:57:21;96264.19;;;9.31;100.00
967;BME280;56108;48.730;9.304;2023-04-01T10:00:03;96276.91;;;9.58;100.00
967;BME280;56108;48.730;9.304;2023-04-01T10:02:40;96269.13;;;9.35;100.00
967;BME280;56108;48.730;9.304;2023-04-01T10:08:15;96267.91;;;9.49;100.00
967;BME280;56108;48.730;9.304;2023-04-01T10:10:52;96264.63;;;9.57;100.00
967;BME280;56108;48.730;9.304;2023-04-01T10:13:30;96266.44;;;9.56;100.00
967;BME280;56108;48.730;9.304;2023-04-01T10:21:46;96268.91;;;9.48;100.00
967;BME280;56108;48.730;9.304;2023-04-01T10:24:17;96262.34;;;9.52;100.00
967;BME280;56108;48.730;9.304;2023-04-01T10:27:10;96267.16;;;9.68;100.00
967;BME280;56108;48.730;9.304;2023-04-01T10:35:21;96270.66;;;10.09;100.00
967;BME280;56108;48.730;9.304;2023-04-01T10:40:36;96274.03;;;10.11;100.00
967;BME280;56108;48.730;9.304;2023-04-01T10:43:40;96280.41;;;10.29;99.34
967;BME280;56108;48.730;9.304;2023-04-01T10:46:19;96284.22;;;10.85;99.74
967;BME280;56108;48.730;9.304;2023-04-01T10:51:18;96277.78;;;11.63;93.92
967;BME280;56108;48.730;9.304;2023-04-01T10:53:49;96276.31;;;11.32;91.82
967;BME280;56108;48.730;9.304;2023-04-01T10:56:45;96273.97;;;11.09;91.11
967;BME280;56108;48.730;9.304;2023-04-01T10:59:36;96266.41;;;11.14;91.88
967;BME280;56108;48.730;9.304;2023-04-01T11:02:45;96263.50;;;10.98;89.59
967;BME280;56108;48.730;9.304;2023-04-01T11:05:48;96278.47;;;11.09;89.06
967;BME280;56108;48.730;9.304;2023-04-01T11:11:09;96274.13;;;11.17;89.24
967;BME280;56108;48.730;9.304;2023-04-01T11:16:40;96277.78;;;10.58;93.53
967;BME280;56108;48.730;9.304;2023-04-01T11:24:44;96271.06;;;10.74;92.31
967;BME280;56108;48.730;9.304;2023-04-01T11:27:45;96276.91;;;11.16;90.74
967;BME280;56108;48.730;9.304;2023-04-01T11:30:06;96286.03;;;11.23;87.55
967;BME280;56108;48.730;9.304;2023-04-01T11:32:39;96284.00;;;11.54;87.56
967;BME280;56108;48.730;9.304;2023-04-01T11:35:00;96290.06;;;11.27;86.27
967;BME280;56108;48.730;9.304;2023-04-01T11:37:24;96290.41;;;11.61;85.64
967;BME280;56108;48.730;9.304;2023-04-01T11:40:02;96293.22;;;11.60;85.71
967;BME280;56108;48.730;9.304;2023-04-01T11:42:43;96294.31;;;11.67;84.78
967;BME280;56108;48.730;9.304;2023-04-01T11:45:36;96289.09;;;11.28;83.85
967;BME280;56108;48.730;9.304;2023-04-01T11:48:04;96284.84;;;11.45;85.46
967;BME280;56108;48.730;9.304;2023-04-01T11:50:23;96288.94;;;11.39;83.04
967;BME280;56108;48.730;9.304;2023-04-01T11:55:19;96297.53;;;11.14;83.66
967;BME280;56108;48.730;9.304;2023-04-01T11:57:50;96298.34;;;11.34;84.11
967;BME280;56108;48.730;9.304;2023-04-01T12:00:26;96296.53;;;11.15;83.35
967;BME280;56108;48.730;9.304;2023-04-01T12:02:44;96309.16;;;10.93;83.03
967;BME280;56108;48.730;9.304;2023-04-01T12:05:33;96312.41;;;11.07;84.19
967;BME280;56108;48.730;9.304;2023-04-01T12:07:55;96310.94;;;11.22;83.72
967;BME280;56108;48.730;9.304;2023-04-01T12:10:16;96311.97;;;11.02;84.23
967;BME280;56108;48.730;9.304;2023-04-01T12:12:32;96315.63;;;10.81;84.69
967;BME280;56108;48.730;9.304;2023-04-01T12:15:16;96310.72;;;10.86;84.32
967;BME280;56108;48.730;9.304;2023-04-01T12:17:36;96314.50;;;11.03;83.58
967;BME280;56108;48.730;9.304;2023-04-01T12:19:51;96312.41;;;10.97;85.05
967;BME280;56108;48.730;9.304;2023-04-01T12:22:34;96313.22;;;10.78;86.07
967;BME280;56108;48.730;9.304;2023-04-01T12:24:49;96319.13;;;10.82;85.82
967;BME280;56108;48.730;9.304;2023-04-01T12:27:21;96318.97;;;10.83;88.14
967;BME280;56108;48.730;9.304;2023-04-01T12:29:45;96322.19;;;10.96;88.73
967;BME280;56108;48.730;9.304;2023-04-01T12:32:01;96322.75;;;10.81;86.03
967;BME280;56108;48.730;9.304;2023-04-01T12:37:11;96317.41;;;11.00;87.41
967;BME280;56108;48.730;9.304;2023-04-01T12:42:35;96329.31;;;11.15;85.66
967;BME280;56108;48.730;9.304;2023-04-01T12:45:01;96328.16;;;11.57;86.66
967;BME280;56108;48.730;9.304;2023-04-01T12:47:20;96321.78;;;11.77;83.76
967;BME280;56108;48.730;9.304;2023-04-01T12:49:50;96321.88;;;12.32;83.78
967;BME280;56108;48.730;9.304;2023-04-01T12:52:09;96317.56;;;12.21;79.70
967;BME280;56108;48.730;9.304;2023-04-01T12:57:19;96335.13;;;12.42;79.18
967;BME280;56108;48.730;9.304;2023-04-01T12:59:47;96341.81;;;12.56;78.80
967;BME280;56108;48.730;9.304;2023-04-01T13:02:07;96335.41;;;12.48;76.24
967;BME280;56108;48.730;9.304;2023-04-01T13:04:39;96335.13;;;12.42;76.79
967;BME280;56108;48.730;9.304;2023-04-01T13:07:12;96335.34;;;12.31;76.07
967;BME280;56108;48.730;9.304;2023-04-01T13:09:36;96325.66;;;12.30;75.49
967;BME280;56108;48.730;9.304;2023-04-01T13:11:56;96325.53;;;11.94;74.01
967;BME280;56108;48.730;9.304;2023-04-01T13:14:27;96342.50;;;12.30;76.23
967;BME280;56108;48.730;9.304;2023-04-01T13:16:45;96330.44;;;11.98;75.47
967;BME280;56108;48.730;9.304;2023-04-01T13:19:00;96339.97;;;12.01;74.47
967;BME280;56108;48.730;9.304;2023-04-01T13:21:16;96346.25;;;12.10;75.44
967;BME280;56108;48.730;9.304;2023-04-01T13:23:34;96343.75;;;11.98;75.66
967;BME280;56108;48.730;9.304;2023-04-01T13:25:47;96339.06;;;11.83;74.92
967;BME280;56108;48.730;9.304;2023-04-01T13:28:21;96342.38;;;11.28;74.58
967;BME280;56108;48.730;9.304;2023-04-01T13:30:36;96348.63;;;11.56;76.37
967;BME280;56108;48.730;9.304;2023-04-01T13:32:54;96344.56;;;11.42;75.90
967;BME280;56108;48.730;9.304;2023-04-01T13:35:16;96349.91;;;11.33;77.85
967;BME280;56108;48.730;9.304;2023-04-01T13:37:46;96346.84;;;11.28;77.37
967;BME280;56108;48.730;9.304;2023-04-01T13:40:14;96349.53;;;11.18;77.46
967;BME280;56108;48.730;9.304;2023-04-01T13:42:28;96341.53;;;11.28;77.33
967;BME280;56108;48.730;9.304;2023-04-01T13:44:45;96349.78;;;11.24;76.63